sensor_id;sensor_type;location;lat;lon;timestamp;pressure;altitude;pressure_sealevel;temperature;humidity
31005;BME280;17676;52.254;4.490;2023-04-06T00:01:13;101518.22;;;7.03;100.00
31005;BME280;17676;52.254;4.490;2023-04-06T00:03:39;101517.38;;;7.02;100.00
31005;BME280;17676;52.254;4.490;2023-04-06T00:06:05;101509.13;;;7.04;100.00
31005;BME280;17676;52.254;4.490;2023-04-06T00:08:30;101495.19;;;6.92;100.00
31005;BME280;17676;52.254;4.490;2023-04-06T00:10:56;101502.75;;;6.97;100.00
31005;BME280;17676;52.254;4.490;2023-04-06T00:13:21;101498.72;;;6.93;100.00
31005;BME280;17676;52.254;4.490;2023-04-06T00:15:49;101496.72;;;6.87;100.00
31005;BME280;17676;52.254;4.490;2023-04-06T00:18:15;101490.63;;;6.85;100.00
31005;BME280;17676;52.254;4.490;2023-04-06T00:20:41;101489.97;;;6.83;100.00
31005;BME280;17676;52.254;4.490;2023-04-06T00:23:07;101469.44;;;6.74;100.00
31005;BME280;17676;52.254;4.490;2023-04-06T00:25:33;101484.94;;;6.80;100.00
31005;BME280;17676;52.254;4.490;2023-04-06T00:27:58;101475.50;;;6.76;100.00
31005;BME280;17676;52.254;4.490;2023-04-06T00:30:24;101477.50;;;6.74;100.00
31005;BME280;17676;52.254;4.490;2023-04-06T00:32:49;101466.09;;;6.64;100.00
31005;BME280;17676;52.254;4.490;2023-04-06T00:35:15;101473.16;;;6.57;100.00
31005;BME280;17676;52.254;4.490;2023-04-06T00:37:40;101467.75;;;6.57;100.00
31005;BME280;17676;52.254;4.490;2023-04-06T00:40:06;101459.22;;;6.61;100.00
31005;BME280;17676;52.254;4.490;2023-04-06T00:42:32;101458.03;;;6.56;100.00
31005;BME280;17676;52.254;4.490;2023-04-06T00:44:59;101456.69;;;6.60;100.00
31005;BME280;17676;52.254;4.490;2023-04-06T00:47:26;101453.50;;;6.64;100.00
31005;BME280;17676;52.254;4.490;2023-04-06T00:49:53;101459.69;;;6.49;100.00
31005;BME280;17676;52.254;4.490;2023-04-06T00:52:19;101448.13;;;6.56;100.00
31005;BME280;17676;52.254;4.490;2023-04-06T00:54:44;101452.66;;;6.64;100.00
31005;BME280;17676;52.254;4.490;2023-04-06T00:57:13;101445.25;;;6.66;100.00
31005;BME280;17676;52.254;4.490;2023-04-06T00:59:40;101446.25;;;6.65;100.00
31005;BME280;17676;52.254;4.490;2023-04-06T01:02:06;101449.47;;;6.68;100.00
31005;BME280;17676;52.254;4.490;2023-04-06T01:04:32;101451.78;;;6.79;100.00
31005;BME280;17676;52.254;4.490;2023-04-06T01:06:58;101452.66;;;6.72;100.00
31005;BME280;17676;52.254;4.490;2023-04-06T01:09:28;101439.38;;;6.78;100.00
31005;BME280;17676;52.254;4.490;2023-04-06T01:11:57;101437.38;;;6.72;100.00
31005;BME280;17676;52.254;4.490;2023-04-06T01:14:24;101435.50;;;6.81;100.00
31005;BME280;17676;52.254;4.490;2023-04-06T01:16:51;101429.78;;;6.76;100.00
31005;BME280;17676;52.254;4.490;2023-04-06T01:19:17;101425.59;;;6.73;100.00
31005;BME280;17676;52.254;4.490;2023-04-06T01:21:43;101421.88;;;6.74;100.00
31005;BME280;17676;52.254;4.490;2023-04-06T01:24:09;101417.00;;;6.78;100.00
31005;BME280;17676;52.254;4.490;2023-04-06T01:26:36;101424.06;;;6.79;100.00
31005;BME280;17676;52.254;4.490;2023-04-06T01:29:03;101412.63;;;6.85;100.00
31005;BME280;17676;52.254;4.490;2023-04-06T01:31:29;101409.59;;;6.80;100.00
31005;BME280;17676;52.254;4.490;2023-04-06T01:33:55;101409.59;;;6.80;100.00
31005;BME280;17676;52.254;4.490;2023-04-06T01:36:21;101403.22;;;6.73;100.00
31005;BME280;17676;52.254;4.490;2023-04-06T01:38:46;101403.22;;;6.73;100.00
31005;BME280;17676;52.254;4.490;2023-04-06T01:41:12;101385.41;;;6.80;100.00
31005;BME280;17676;52.254;4.490;2023-04-06T01:43:37;101394.78;;;6.92;100.00
31005;BME280;17676;52.254;4.490;2023-04-06T01:46:03;101387.59;;;6.84;100.00
31005;BME280;17676;52.254;4.490;2023-04-06T01:48:29;101387.06;;;6.89;100.00
31005;BME280;17676;52.254;4.490;2023-04-06T01:50:55;101391.78;;;6.95;100.00
31005;BME280;17676;52.254;4.490;2023-04-06T01:53:21;101382.34;;;6.99;100.00
31005;BME280;17676;52.254;4.490;2023-04-06T01:55:46;101378.16;;;6.96;100.00
31005;BME280;17676;52.254;4.490;2023-04-06T01:58:12;101371.22;;;7.02;100.00
31005;BME280;17676;52.254;4.490;2023-04-06T02:00:38;101375.22;;;7.14;100.00
31005;BME280;17676;52.254;4.490;2023-04-06T02:03:05;101379.25;;;7.10;100.00
31005;BME280;17676;52.254;4.490;2023-04-06T02:05:33;101370.19;;;7.11;100.00
31005;BME280;17676;52.254;4.490;2023-04-06T02:08:04;101362.63;;;7.06;100.00
31005;BME280;17676;52.254;4.490;2023-04-06T02:10:30;101362.81;;;7.05;100.00
31005;BME280;17676;52.254;4.490;2023-04-06T02:12:56;101358.56;;;7.18;100.00
31005;BME280;17676;52.254;4.490;2023-04-06T02:15:21;101356.75;;;7.11;100.00
31005;BME280;17676;52.254;4.490;2023-04-06T02:17:47;101363.81;;;7.12;100.00
31005;BME280;17676;52.254;4.490;2023-04-06T02:20:12;101367.31;;;7.12;100.00
31005;BME280;17676;52.254;4.490;2023-04-06T02:22:41;101360.09;;;7.13;100.00
31005;BME280;17676;52.254;4.490;2023-04-06T02:25:07;101362.09;;;7.19;100.00
31005;BME280;17676;52.254;4.490;2023-04-06T02:27:33;101350.47;;;7.18;100.00
31005;BME280;17676;52.254;4.490;2023-04-06T02:29:59;101349.81;;;7.08;100.00
31005;BME280;17676;52.254;4.490;2023-04-06T02:32:24;101335.59;;;7.00;100.00
31005;BME280;17676;52.254;4.490;2023-04-06T02:34:50;101350.69;;;7.09;100.00
31005;BME280;17676;52.254;4.490;2023-04-06T02:37:15;101344.63;;;7.15;100.00
31005;BME280;17676;52.254;4.490;2023-04-06T02:39:41;101342.56;;;7.17;100.00
31005;BME280;17676;52.254;4.490;2023-04-06T02:42:06;101351.97;;;7.21;100.00
31005;BME280;17676;52.254;4.490;2023-04-06T02:44:32;101345.28;;;7.17;100.00
31005;BME280;17676;52.254;4.490;2023-04-06T02:46:58;101345.63;;;7.14;100.00
31005;BME280;17676;52.254;4.490;2023-04-06T02:49:24;101353.03;;;7.12;100.00
31005;BME280;17676;52.254;4.490;2023-04-06T02:51:49;101339.41;;;7.13;100.00
31005;BME280;17676;52.254;4.490;2023-04-06T02:54:15;101336.38;;;7.08;100.00
31005;BME280;17676;52.254;4.490;2023-04-06T02:56:40;101332.84;;;7.16;100.00
31005;BME280;17676;52.254;4.490;2023-04-06T02:59:06;101318.59;;;6.99;100.00
31005;BME280;17676;52.254;4.490;2023-04-06T03:01:31;101330.47;;;7.13;100.00
31005;BME280;17676;52.254;4.490;2023-04-06T03:03:57;101320.22;;;7.08;100.00
31005;BME280;17676;52.254;4.490;2023-04-06T03:06:22;101316.38;;;7.11;100.00
31005;BME280;17676;52.254;4.490;2023-04-06T03:08:47;101319.72;;;7.13;100.00
31005;BME280;17676;52.254;4.490;2023-04-06T03:11:14;101315.34;;;7.12;100.00
31005;BME280;17676;52.254;4.490;2023-04-06T03:13:40;101314.00;;;7.16;100.00
31005;BME280;17676;52.254;4.490;2023-04-06T03:16:05;101308.94;;;7.13;100.00
31005;BME280;17676;52.254;4.490;2023-04-06T03:18:31;101311.94;;;7.18;100.00
31005;BME280;17676;52.254;4.490;2023-04-06T03:20:57;101306.75;;;7.16;100.00
31005;BME280;17676;52.254;4.490;2023-04-06T03:23:22;101299.84;;;7.14;100.00
31005;BME280;17676;52.254;4.490;2023-04-06T03:25:48;101293.16;;;7.10;100.00
31005;BME280;17676;52.254;4.490;2023-04-06T03:28:14;101295.31;;;7.14;100.00
31005;BME280;17676;52.254;4.490;2023-04-06T03:30:39;101279.00;;;7.16;100.00
31005;BME280;17676;52.254;4.490;2023-04-06T03:33:05;101295.53;;;7.05;100.00
31005;BME280;17676;52.254;4.490;2023-04-06T03:35:30;101275.31;;;7.09;100.00
31005;BME280;17676;52.254;4.490;2023-04-06T03:37:56;101285.41;;;7.15;100.00
31005;BME280;17676;52.254;4.490;2023-04-06T03:40:22;101278.84;;;7.17;100.00
31005;BME280;17676;52.254;4.490;2023-04-06T03:42:48;101281.72;;;7.08;100.00
31005;BME280;17676;52.254;4.490;2023-04-06T03:45:13;101276.03;;;7.03;100.00
31005;BME280;17676;52.254;4.490;2023-04-06T03:47:39;101281.50;;;6.87;100.00
31005;BME280;17676;52.254;4.490;2023-04-06T03:50:05;101272.44;;;6.80;100.00
31005;BME280;17676;52.254;4.490;2023-04-06T03:52:30;101272.94;;;6.75;100.00
31005;BME280;17676;52.254;4.490;2023-04-06T03:54:56;101272.13;;;6.75;100.00
31005;BME280;17676;52.254;4.490;2023-04-06T03:57:21;101265.25;;;6.72;100.00
31005;BME280;17676;52.254;4.490;2023-04-06T03:59:47;101266.72;;;6.83;100.00
31005;BME280;17676;52.254;4.490;2023-04-06T04:02:12;101267.03;;;6.80;100.00
31005;BME280;17676;52.254;4.490;2023-04-06T04:04:38;101249.28;;;6.71;100.00
31005;BME280;17676;52.254;4.490;2023-04-06T04:07:03;101263.69;;;6.70;100.00
31005;BME280;17676;52.254;4.490;2023-04-06T04:09:28;101265.09;;;6.58;100.00
31005;BME280;17676;52.254;4.490;2023-04-06T04:11:54;101263.38;;;6.65;100.00
31005;BME280;17676;52.254;4.490;2023-04-06T04:14:21;101260.00;;;6.79;100.00
31005;BME280;17676;52.254;4.490;2023-04-06T04:16:47;101255.56;;;6.86;100.00
31005;BME280;17676;52.254;4.490;2023-04-06T04:19:12;101260.78;;;6.87;100.00
31005;BME280;17676;52.254;4.490;2023-04-06T04:21:45;101259.56;;;6.98;100.00
31005;BME280;17676;52.254;4.490;2023-04-06T04:24:11;101258.44;;;6.92;100.00
31005;BME280;17676;52.254;4.490;2023-04-06T04:26:37;101259.97;;;6.87;100.00
31005;BME280;17676;52.254;4.490;2023-04-06T04:29:06;101263.00;;;6.84;100.00
31005;BME280;17676;52.254;4.490;2023-04-06T04:31:31;101256.91;;;6.90;100.00
31005;BME280;17676;52.254;4.490;2023-04-06T04:33:57;101254.84;;;7.00;100.00
31005;BME280;17676;52.254;4.490;2023-04-06T04:36:23;101245.25;;;7.05;100.00
31005;BME280;17676;52.254;4.490;2023-04-06T04:38:49;101249.00;;;6.96;100.00
31005;BME280;17676;52.254;4.490;2023-04-06T04:41:15;101250.31;;;7.00;100.00
31005;BME280;17676;52.254;4.490;2023-04-06T04:43:40;101249.47;;;7.00;100.00
31005;BME280;17676;52.254;4.490;2023-04-06T04:46:06;101252.47;;;7.05;100.00
31005;BME280;17676;52.254;4.490;2023-04-06T04:48:31;101253.19;;;6.99;100.00
31005;BME280;17676;52.254;4.490;2023-04-06T04:50:57;101246.91;;;7.06;100.00
31005;BME280;17676;52.254;4.490;2023-04-06T04:53:22;101248.91;;;7.12;100.00
31005;BME280;17676;52.254;4.490;2023-04-06T04:55:48;101243.03;;;7.09;100.00
31005;BME280;17676;52.254;4.490;2023-04-06T04:58:13;101242.19;;;7.08;100.00
31005;BME280;17676;52.254;4.490;2023-04-06T05:00:44;101243.63;;;6.96;100.00
31005;BME280;17676;52.254;4.490;2023-04-06T05:03:14;101240.72;;;6.98;100.00
31005;BME280;17676;52.254;4.490;2023-04-06T05:05:42;101234.41;;;6.91;100.00
31005;BME280;17676;52.254;4.490;2023-04-06T05:08:07;101233.97;;;7.02;100.00
31005;BME280;17676;52.254;4.490;2023-04-06T05:10:32;101237.34;;;7.04;100.00
31005;BME280;17676;52.254;4.490;2023-04-06T05:12:59;101232.91;;;7.19;100.00
31005;BME280;17676;52.254;4.490;2023-04-06T05:15:24;101236.25;;;7.21;100.00
31005;BME280;17676;52.254;4.490;2023-04-06T05:17:50;101226.53;;;7.12;100.00
31005;BME280;17676;52.254;4.490;2023-04-06T05:20:16;101233.94;;;7.10;100.00
31005;BME280;17676;52.254;4.490;2023-04-06T05:22:41;101228.88;;;7.15;100.00
31005;BME280;17676;52.254;4.490;2023-04-06T05:25:07;101228.69;;;7.16;100.00
31005;BME280;17676;52.254;4.490;2023-04-06T05:27:33;101221.38;;;7.33;100.00
31005;BME280;17676;52.254;4.490;2023-04-06T05:29:59;101226.22;;;7.37;100.00
31005;BME280;17676;52.254;4.490;2023-04-06T05:32:24;101232.81;;;7.35;100.00
31005;BME280;17676;52.254;4.490;2023-04-06T05:34:50;101221.66;;;7.38;100.00
31005;BME280;17676;52.254;4.490;2023-04-06T05:37:16;101219.66;;;7.40;100.00
31005;BME280;17676;52.254;4.490;2023-04-06T05:39:41;101214.59;;;7.37;100.00
31005;BME280;17676;52.254;4.490;2023-04-06T05:42:07;101217.66;;;7.34;100.00
31005;BME280;17676;52.254;4.490;2023-04-06T05:44:32;101212.09;;;7.35;100.00
31005;BME280;17676;52.254;4.490;2023-04-06T05:46:58;101216.28;;;7.38;100.00
31005;BME280;17676;52.254;4.490;2023-04-06T05:49:23;101221.00;;;7.36;100.00
31005;BME280;17676;52.254;4.490;2023-04-06T05:51:49;101216.78;;;7.41;100.00
31005;BME280;17676;52.254;4.490;2023-04-06T05:54:14;101214.03;;;7.49;100.00
31005;BME280;17676;52.254;4.490;2023-04-06T05:56:40;101205.88;;;7.57;100.00
31005;BME280;17676;52.254;4.490;2023-04-06T05:59:06;101208.88;;;7.62;100.00
31005;BME280;17676;52.254;4.490;2023-04-06T06:01:32;101206.72;;;7.58;100.00
31005;BME280;17676;52.254;4.490;2023-04-06T06:04:00;101213.41;;;7.62;100.00
31005;BME280;17676;52.254;4.490;2023-04-06T06:06:27;101215.63;;;7.58;100.00
31005;BME280;17676;52.254;4.490;2023-04-06T06:08:53;101212.28;;;7.56;100.00
31005;BME280;17676;52.254;4.490;2023-04-06T06:11:18;101213.06;;;7.65;100.00
31005;BME280;17676;52.254;4.490;2023-04-06T06:13:44;101213.72;;;7.67;100.00
31005;BME280;17676;52.254;4.490;2023-04-06T06:16:10;101222.97;;;7.64;100.00
31005;BME280;17676;52.254;4.490;2023-04-06T06:18:35;101198.63;;;7.58;100.00
31005;BME280;17676;52.254;4.490;2023-04-06T06:21:02;101216.28;;;7.60;100.00
31005;BME280;17676;52.254;4.490;2023-04-06T06:23:27;101211.38;;;7.64;100.00
31005;BME280;17676;52.254;4.490;2023-04-06T06:25:53;101208.97;;;7.69;100.00
31005;BME280;17676;52.254;4.490;2023-04-06T06:28:18;101199.75;;;7.63;100.00
31005;BME280;17676;52.254;4.490;2023-04-06T06:30:44;101208.69;;;7.64;100.00
31005;BME280;17676;52.254;4.490;2023-04-06T06:33:10;101208.69;;;7.64;100.00
31005;BME280;17676;52.254;4.490;2023-04-06T06:35:36;101213.06;;;7.65;100.00
31005;BME280;17676;52.254;4.490;2023-04-06T06:38:01;101210.06;;;7.60;100.00
31005;BME280;17676;52.254;4.490;2023-04-06T06:40:26;101215.69;;;7.73;100.00
31005;BME280;17676;52.254;4.490;2023-04-06T06:42:54;101220.91;;;7.52;100.00
31005;BME280;17676;52.254;4.490;2023-04-06T06:45:19;101222.38;;;7.32;100.00
31005;BME280;17676;52.254;4.490;2023-04-06T06:47:45;101209.94;;;7.31;100.00
31005;BME280;17676;52.254;4.490;2023-04-06T06:50:12;101215.34;;;7.53;100.00
31005;BME280;17676;52.254;4.490;2023-04-06T06:52:38;101215.09;;;7.63;100.00
31005;BME280;17676;52.254;4.490;2023-04-06T06:55:05;101207.31;;;7.68;100.00
31005;BME280;17676;52.254;4.490;2023-04-06T06:57:30;101203.19;;;7.80;100.00
31005;BME280;17676;52.254;4.490;2023-04-06T06:59:56;101202.25;;;7.87;100.00
31005;BME280;17676;52.254;4.490;2023-04-06T07:02:21;101201.25;;;8.03;100.00
31005;BME280;17676;52.254;4.490;2023-04-06T07:04:50;101205.56;;;8.12;100.00
31005;BME280;17676;52.254;4.490;2023-04-06T07:07:15;101197.19;;;8.07;100.00
31005;BME280;17676;52.254;4.490;2023-04-06T07:09:41;101205.66;;;8.18;100.00
31005;BME280;17676;52.254;4.490;2023-04-06T07:12:06;101200.69;;;8.30;100.00
31005;BME280;17676;52.254;4.490;2023-04-06T07:14:32;101196.78;;;8.47;100.00
31005;BME280;17676;52.254;4.490;2023-04-06T07:16:57;101188.91;;;8.60;100.00
31005;BME280;17676;52.254;4.490;2023-04-06T07:19:23;101189.25;;;8.57;100.00
31005;BME280;17676;52.254;4.490;2023-04-06T07:21:50;101185.97;;;8.61;100.00
31005;BME280;17676;52.254;4.490;2023-04-06T07:24:18;101188.59;;;8.84;100.00
31005;BME280;17676;52.254;4.490;2023-04-06T07:26:44;101180.28;;;8.85;100.00
31005;BME280;17676;52.254;4.490;2023-04-06T07:29:15;101185.13;;;8.90;100.00
31005;BME280;17676;52.254;4.490;2023-04-06T07:31:42;101176.41;;;8.88;100.00
31005;BME280;17676;52.254;4.490;2023-04-06T07:34:10;101164.81;;;8.94;100.00
31005;BME280;17676;52.254;4.490;2023-04-06T07:36:35;101176.50;;;9.15;100.00
31005;BME280;17676;52.254;4.490;2023-04-06T07:39:01;101180.94;;;9.23;100.00
31005;BME280;17676;52.254;4.490;2023-04-06T07:41:26;101169.25;;;9.37;100.00
31005;BME280;17676;52.254;4.490;2023-04-06T07:43:51;101174.78;;;9.29;100.00
31005;BME280;17676;52.254;4.490;2023-04-06T07:46:20;101171.16;;;9.22;100.00
31005;BME280;17676;52.254;4.490;2023-04-06T07:48:46;101171.28;;;9.14;100.00
31005;BME280;17676;52.254;4.490;2023-04-06T07:51:11;101170.00;;;9.10;100.00
31005;BME280;17676;52.254;4.490;2023-04-06T07:53:39;101173.19;;;9.34;100.00
31005;BME280;17676;52.254;4.490;2023-04-06T07:56:05;101171.28;;;9.35;100.00
31005;BME280;17676;52.254;4.490;2023-04-06T07:58:31;101170.91;;;9.17;100.00
31005;BME280;17676;52.254;4.490;2023-04-06T08:01:02;101169.84;;;8.97;100.00
31005;BME280;17676;52.254;4.490;2023-04-06T08:03:27;101171.38;;;8.85;100.00
31005;BME280;17676;52.254;4.490;2023-04-06T08:05:55;101167.56;;;9.15;100.00
31005;BME280;17676;52.254;4.490;2023-04-06T08:08:21;101164.59;;;9.31;100.00
31005;BME280;17676;52.254;4.490;2023-04-06T08:10:48;101156.50;;;9.31;100.00
31005;BME280;17676;52.254;4.490;2023-04-06T08:13:14;101160.56;;;9.20;100.00
31005;BME280;17676;52.254;4.490;2023-04-06T08:15:42;101160.63;;;9.27;100.00
31005;BME280;17676;52.254;4.490;2023-04-06T08:18:08;101162.63;;;9.39;100.00
31005;BME280;17676;52.254;4.490;2023-04-06T08:20:34;101163.00;;;9.57;100.00
31005;BME280;17676;52.254;4.490;2023-04-06T08:23:00;101159.19;;;9.52;100.00
31005;BME280;17676;52.254;4.490;2023-04-06T08:25:26;101160.47;;;9.56;100.00
31005;BME280;17676;52.254;4.490;2023-04-06T08:27:51;101157.28;;;9.67;100.00
31005;BME280;17676;52.254;4.490;2023-04-06T08:30:17;101148.63;;;9.78;100.00
31005;BME280;17676;52.254;4.490;2023-04-06T08:32:45;101160.69;;;10.03;100.00
31005;BME280;17676;52.254;4.490;2023-04-06T08:35:12;101150.72;;;9.82;100.00
31005;BME280;17676;52.254;4.490;2023-04-06T08:37:37;101148.88;;;9.83;100.00
31005;BME280;17676;52.254;4.490;2023-04-06T08:40:03;101158.28;;;9.87;100.00
31005;BME280;17676;52.254;4.490;2023-04-06T08:42:32;101149.81;;;9.69;100.00
31005;BME280;17676;52.254;4.490;2023-04-06T08:45:00;101149.59;;;9.91;100.00
31005;BME280;17676;52.254;4.490;2023-04-06T08:47:26;101152.34;;;9.98;100.00
31005;BME280;17676;52.254;4.490;2023-04-06T08:49:52;101143.59;;;10.24;100.00
31005;BME280;17676;52.254;4.490;2023-04-06T08:52:22;101146.81;;;10.40;100.00
31005;BME280;17676;52.254;4.490;2023-04-06T08:54:49;101146.19;;;10.38;100.00
31005;BME280;17676;52.254;4.490;2023-04-06T08:57:17;101154.78;;;10.14;100.00
31005;BME280;17676;52.254;4.490;2023-04-06T08:59:44;101148.97;;;10.17;100.00
31005;BME280;17676;52.254;4.490;2023-04-06T09:02:16;101155.25;;;10.24;100.00
31005;BME280;17676;52.254;4.490;2023-04-06T09:04:45;101137.81;;;10.33;100.00
31005;BME280;17676;52.254;4.490;2023-04-06T09:07:14;101140.63;;;10.18;100.00
31005;BME280;17676;52.254;4.490;2023-04-06T09:09:41;101144.22;;;9.98;100.00
31005;BME280;17676;52.254;4.490;2023-04-06T09:12:28;101142.03;;;10.08;100.00
31005;BME280;17676;52.254;4.490;2023-04-06T09:14:54;101142.72;;;10.17;100.00
31005;BME280;17676;52.254;4.490;2023-04-06T09:17:26;101155.59;;;10.14;100.00
31005;BME280;17676;52.254;4.490;2023-04-06T09:19:52;101148.56;;;10.20;100.00
31005;BME280;17676;52.254;4.490;2023-04-06T09:22:18;101152.56;;;10.03;100.00
31005;BME280;17676;52.254;4.490;2023-04-06T09:24:46;101150.25;;;9.72;100.00
31005;BME280;17676;52.254;4.490;2023-04-06T09:27:14;101153.16;;;9.71;100.00
31005;BME280;17676;52.254;4.490;2023-04-06T09:29:40;101162.63;;;9.88;100.00
31005;BME280;17676;52.254;4.490;2023-04-06T09:32:08;101152.19;;;9.57;100.00
31005;BME280;17676;52.254;4.490;2023-04-06T09:34:36;101157.78;;;9.56;100.00
31005;BME280;17676;52.254;4.490;2023-04-06T09:37:18;101149.56;;;9.43;100.00
31005;BME280;17676;52.254;4.490;2023-04-06T09:39:45;101155.88;;;9.50;100.00
31005;BME280;17676;52.254;4.490;2023-04-06T09:42:31;101139.53;;;9.58;100.00
31005;BME280;17676;52.254;4.490;2023-04-06T09:44:57;101142.75;;;9.47;100.00
31005;BME280;17676;52.254;4.490;2023-04-06T09:47:23;101143.25;;;9.15;100.00
31005;BME280;17676;52.254;4.490;2023-04-06T09:49:50;101144.78;;;9.24;100.00
31005;BME280;17676;52.254;4.490;2023-04-06T09:52:21;101132.00;;;9.32;100.00
31005;BME280;17676;52.254;4.490;2023-04-06T09:54:50;101144.59;;;9.25;100.00
31005;BME280;17676;52.254;4.490;2023-04-06T09:57:27;101137.22;;;9.13;100.00
31005;BME280;17676;52.254;4.490;2023-04-06T10:00:05;101142.31;;;9.22;100.00
31005;BME280;17676;52.254;4.490;2023-04-06T10:08:12;101141.88;;;9.04;100.00
31005;BME280;17676;52.254;4.490;2023-04-06T10:10:38;101145.63;;;9.03;100.00
31005;BME280;17676;52.254;4.490;2023-04-06T10:13:04;101143.91;;;9.17;100.00
31005;BME280;17676;52.254;4.490;2023-04-06T10:15:31;101141.03;;;9.18;100.00
31005;BME280;17676;52.254;4.490;2023-04-06T10:17:58;101143.03;;;8.95;100.00
31005;BME280;17676;52.254;4.490;2023-04-06T10:20:29;101134.72;;;8.76;100.00
31005;BME280;17676;52.254;4.490;2023-04-06T10:23:17;101142.31;;;8.87;100.00
31005;BME280;17676;52.254;4.490;2023-04-06T10:25:53;101138.44;;;9.10;100.00
31005;BME280;17676;52.254;4.490;2023-04-06T10:28:19;101132.66;;;9.34;100.00
31005;BME280;17676;52.254;4.490;2023-04-06T10:30:46;101141.59;;;9.35;100.00
31005;BME280;17676;52.254;4.490;2023-04-06T10:33:19;101134.53;;;9.34;100.00
31005;BME280;17676;52.254;4.490;2023-04-06T10:35:45;101134.91;;;9.10;100.00
31005;BME280;17676;52.254;4.490;2023-04-06T10:38:11;101129.66;;;8.87;100.00
31005;BME280;17676;52.254;4.490;2023-04-06T10:40:40;101128.56;;;8.82;100.00
31005;BME280;17676;52.254;4.490;2023-04-06T10:45:35;101126.22;;;8.79;100.00
31005;BME280;17676;52.254;4.490;2023-04-06T10:48:15;101124.94;;;8.75;100.00
31005;BME280;17676;52.254;4.490;2023-04-06T10:50:51;101114.69;;;8.85;100.00
31005;BME280;17676;52.254;4.490;2023-04-06T10:53:25;101113.97;;;8.97;100.00
31005;BME280;17676;52.254;4.490;2023-04-06T10:55:51;101114.38;;;8.94;100.00
31005;BME280;17676;52.254;4.490;2023-04-06T10:58:17;101107.28;;;8.93;100.00
31005;BME280;17676;52.254;4.490;2023-04-06T11:00:44;101112.56;;;9.01;100.00
31005;BME280;17676;52.254;4.490;2023-04-06T11:03:10;101110.34;;;9.05;100.00
31005;BME280;17676;52.254;4.490;2023-04-06T11:05:36;101120.34;;;8.90;100.00
31005;BME280;17676;52.254;4.490;2023-04-06T11:08:01;101112.06;;;8.91;100.00
31005;BME280;17676;52.254;4.490;2023-04-06T11:10:27;101107.75;;;8.76;100.00
31005;BME280;17676;52.254;4.490;2023-04-06T11:12:56;101112.84;;;8.71;100.00
31005;BME280;17676;52.254;4.490;2023-04-06T11:15:22;101109.38;;;8.91;100.00
31005;BME280;17676;52.254;4.490;2023-04-06T11:17:49;101103.06;;;8.84;100.00
31005;BME280;17676;52.254;4.490;2023-04-06T11:20:16;101113.28;;;8.89;100.00
31005;BME280;17676;52.254;4.490;2023-04-06T11:22:51;101102.75;;;8.94;100.00
31005;BME280;17676;52.254;4.490;2023-04-06T11:25:17;101100.94;;;8.80;100.00
31005;BME280;17676;52.254;4.490;2023-04-06T11:27:43;101107.09;;;8.95;100.00
31005;BME280;17676;52.254;4.490;2023-04-06T11:30:09;101094.28;;;8.97;100.00
31005;BME280;17676;52.254;4.490;2023-04-06T11:32:43;101093.50;;;9.03;100.00
31005;BME280;17676;52.254;4.490;2023-04-06T11:35:33;101081.47;;;9.05;100.00
31005;BME280;17676;52.254;4.490;2023-04-06T11:38:03;101082.69;;;9.03;100.00
31005;BME280;17676;52.254;4.490;2023-04-06T11:40:29;101078.69;;;8.99;100.00
31005;BME280;17676;52.254;4.490;2023-04-06T11:42:55;101072.75;;;9.03;100.00
31005;BME280;17676;52.254;4.490;2023-04-06T11:45:22;101067.78;;;9.07;100.00
31005;BME280;17676;52.254;4.490;2023-04-06T11:47:57;101066.69;;;9.22;100.00
31005;BME280;17676;52.254;4.490;2023-04-06T11:50:24;101061.75;;;9.05;100.00
31005;BME280;17676;52.254;4.490;2023-04-06T11:52:58;101037.91;;;8.87;100.00
31005;BME280;17676;52.254;4.490;2023-04-06T11:55:25;101056.06;;;9.00;100.00
31005;BME280;17676;52.254;4.490;2023-04-06T11:57:50;101052.63;;;9.06;100.00
31005;BME280;17676;52.254;4.490;2023-04-06T12:00:17;101052.38;;;9.01;100.00
31005;BME280;17676;52.254;4.490;2023-04-06T12:02:48;101045.69;;;8.97;100.00
31005;BME280;17676;52.254;4.490;2023-04-06T12:05:13;101049.84;;;8.99;100.00
31005;BME280;17676;52.254;4.490;2023-04-06T12:07:42;101045.75;;;9.03;100.00
31005;BME280;17676;52.254;4.490;2023-04-06T12:10:08;101053.66;;;9.05;100.00
31005;BME280;17676;52.254;4.490;2023-04-06T12:12:33;101049.91;;;9.06;100.00
31005;BME280;17676;52.254;4.490;2023-04-06T12:14:59;101042.56;;;9.00;100.00
31005;BME280;17676;52.254;4.490;2023-04-06T12:17:26;101050.22;;;8.96;100.00
31005;BME280;17676;52.254;4.490;2023-04-06T12:19:51;101048.25;;;9.05;100.00
31005;BME280;17676;52.254;4.490;2023-04-06T12:22:18;101045.75;;;9.03;100.00
31005;BME280;17676;52.254;4.490;2023-04-06T12:24:43;101050.94;;;9.05;100.00
31005;BME280;17676;52.254;4.490;2023-04-06T12:27:09;101059.53;;;9.15;100.00
31005;BME280;17676;52.254;4.490;2023-04-06T12:29:37;101060.97;;;9.11;100.00
31005;BME280;17676;52.254;4.490;2023-04-06T12:32:03;101070.84;;;9.04;100.00
31005;BME280;17676;52.254;4.490;2023-04-06T12:34:28;101056.53;;;9.03;100.00
31005;BME280;17676;52.254;4.490;2023-04-06T12:36:57;101056.28;;;8.98;100.00
31005;BME280;17676;52.254;4.490;2023-04-06T12:39:23;101066.13;;;9.06;100.00
31005;BME280;17676;52.254;4.490;2023-04-06T12:41:48;101059.06;;;9.05;100.00
31005;BME280;17676;52.254;4.490;2023-04-06T12:44:14;101053.47;;;9.06;100.00
31005;BME280;17676;52.254;4.490;2023-04-06T12:46:40;101055.56;;;9.11;100.00
31005;BME280;17676;52.254;4.490;2023-04-06T12:49:05;101061.72;;;9.26;100.00
31005;BME280;17676;52.254;4.490;2023-04-06T12:51:31;101051.59;;;9.07;100.00
31005;BME280;17676;52.254;4.490;2023-04-06T12:53:57;101077.81;;;8.92;100.00
31005;BME280;17676;52.254;4.490;2023-04-06T12:56:22;101068.56;;;9.01;100.00